Time;durP1;ratioP1;P1;durP2;ratioP2;P2;SDS_P1;SDS_P2;PMS_P1;PMS_P2;Temp;Humidity;BMP_temperature;BMP_pressure;BME280_temperature;BME280_humidity;BME280_pressure;Samples;Min_cycle;Max_cycle;Signal;HPM_P1;HPM_P2
2022/12/19 00:01:04;;;;;;;13.00;8.52;;;;;;;;;;5047062;28;20018;-64
2022/12/19 00:03:29;;;;;;;13.48;9.25;;;;;;;;;;5047588;28;20017;-63
2022/12/19 00:05:55;;;;;;;13.52;8.73;;;;;;;;;;5046551;28;20029;-63
2022/12/19 00:08:20;;;;;;;12.88;8.73;;;;;;;;;;5047108;28;20028;-63
2022/12/19 00:10:57;;;;;;;13.15;9.07;;;;;;;;;;5045725;28;20439;-64
2022/12/19 00:13:23;;;;;;;12.02;8.43;;;;;;;;;;5050072;28;20036;-63
2022/12/19 00:15:49;;;;;;;11.85;8.85;;;;;;;;;;5055611;28;20029;-63
2022/12/19 00:18:14;;;;;;;13.48;9.05;;;;;;;;;;5055660;28;20421;-63
2022/12/19 00:20:40;;;;;;;13.55;8.95;;;;;;;;;;5055501;28;20067;-63
2022/12/19 00:23:05;;;;;;;13.20;9.02;;;;;;;;;;5055373;28;20021;-63
2022/12/19 00:25:31;;;;;;;12.98;8.75;;;;;;;;;;5055312;28;20028;-63
2022/12/19 00:27:57;;;;;;;14.82;9.82;;;;;;;;;;5055229;28;20040;-63
2022/12/19 00:30:22;;;;;;;15.55;9.38;;;;;;;;;;5055559;28;20021;-64
2022/12/19 00:32:48;;;;;;;16.10;9.70;;;;;;;;;;5055149;28;20393;-64
2022/12/19 00:35:13;;;;;;;13.35;9.02;;;;;;;;;;5053978;28;20021;-64
2022/12/19 00:37:39;;;;;;;15.50;9.45;;;;;;;;;;5055281;28;20028;-63
2022/12/19 00:40:05;;;;;;;16.27;10.10;;;;;;;;;;5052714;28;20350;-64
2022/12/19 00:42:31;;;;;;;14.25;9.30;;;;;;;;;;5054760;28;20162;-63
2022/12/19 00:44:57;;;;;;;14.55;10.25;;;;;;;;;;5053859;28;20108;-64
2022/12/19 00:47:22;;;;;;;16.05;10.38;;;;;;;;;;5054046;28;20385;-63
2022/12/19 00:49:51;;;;;;;13.52;9.73;;;;;;;;;;5055200;28;20025;-63
2022/12/19 00:52:16;;;;;;;14.75;9.95;;;;;;;;;;5054718;28;20238;-63
2022/12/19 00:54:41;;;;;;;16.05;10.60;;;;;;;;;;5054852;28;20025;-63
2022/12/19 00:57:07;;;;;;;16.48;9.98;;;;;;;;;;5054510;28;20408;-63
2022/12/19 00:59:32;;;;;;;15.25;10.38;;;;;;;;;;5053873;28;20029;-63
2022/12/19 01:01:58;;;;;;;16.90;10.38;;;;;;;;;;5054903;28;20056;-63
2022/12/19 01:04:23;;;;;;;17.38;10.15;;;;;;;;;;5054638;28;20087;-63
2022/12/19 01:06:50;;;;;;;17.33;10.55;;;;;;;;;;5054779;28;20025;-64
2022/12/19 01:09:15;;;;;;;16.13;10.02;;;;;;;;;;5054506;28;20033;-63
2022/12/19 01:14:25;;;;;;;16.70;10.10;;;;;;;;;;5054842;28;20035;-63
2022/12/19 01:16:51;;;;;;;17.25;11.13;;;;;;;;;;5054583;28;20108;-64
2022/12/19 01:19:16;;;;;;;14.57;10.30;;;;;;;;;;5054619;28;20468;-63
2022/12/19 01:21:42;;;;;;;16.83;10.25;;;;;;;;;;5054256;28;20436;-63
2022/12/19 01:24:07;;;;;;;15.55;10.80;;;;;;;;;;5054243;28;20025;-63
2022/12/19 01:26:33;;;;;;;14.55;10.02;;;;;;;;;;5054443;28;20116;-63
2022/12/19 01:28:59;;;;;;;15.60;10.68;;;;;;;;;;5054346;28;20372;-63
2022/12/19 01:31:24;;;;;;;15.77;10.48;;;;;;;;;;5054080;28;20094;-63
2022/12/19 01:33:50;;;;;;;15.45;10.98;;;;;;;;;;5054402;28;20062;-64
2022/12/19 01:36:15;;;;;;;16.30;10.63;;;;;;;;;;5053976;28;20025;-63
2022/12/19 01:38:41;;;;;;;16.10;10.27;;;;;;;;;;5053953;28;20036;-63
2022/12/19 01:41:09;;;;;;;16.73;11.40;;;;;;;;;;5053941;28;20056;-63
2022/12/19 01:44:05;;;;;;;16.55;11.00;;;;;;;;;;5053840;28;20112;-63
2022/12/19 01:46:42;;;;;;;17.00;11.20;;;;;;;;;;5041372;28;20396;-63
2022/12/19 01:49:30;;;;;;;16.83;10.85;;;;;;;;;;5054030;28;20365;-64
2022/12/19 01:51:59;;;;;;;19.35;11.60;;;;;;;;;;5053693;28;20025;-64
2022/12/19 01:54:30;;;;;;;17.67;11.00;;;;;;;;;;5053684;28;20052;-63
2022/12/19 01:56:58;;;;;;;16.73;10.90;;;;;;;;;;5053255;28;20116;-63
2022/12/19 01:59:36;;;;;;;15.15;10.40;;;;;;;;;;5053622;28;20029;-64
2022/12/19 02:02:32;;;;;;;17.67;11.57;;;;;;;;;;5053493;28;20048;-63
2022/12/19 02:05:00;;;;;;;18.13;10.88;;;;;;;;;;5052905;28;20037;-63
2022/12/19 02:07:27;;;;;;;17.92;11.98;;;;;;;;;;5053648;28;20033;-63
2022/12/19 02:09:56;;;;;;;15.80;10.77;;;;;;;;;;5053267;28;20464;-63
2022/12/19 02:12:28;;;;;;;17.88;11.23;;;;;;;;;;5053358;28;20438;-63
2022/12/19 02:14:55;;;;;;;17.08;10.40;;;;;;;;;;5053558;28;20075;-63
2022/12/19 02:17:40;;;;;;;17.17;11.10;;;;;;;;;;5053241;28;20036;-63
2022/12/19 02:20:43;;;;;;;18.05;11.30;;;;;;;;;;5068571;28;20028;-63
2022/12/19 02:23:39;;;;;;;18.25;10.13;;;;;;;;;;5053062;28;20021;-63
2022/12/19 02:26:29;;;;;;;18.88;11.27;;;;;;;;;;5053403;28;20033;-63
2022/12/19 02:29:42;;;;;;;17.20;11.13;;;;;;;;;;5052918;28;20499;-63
2022/12/19 02:32:26;;;;;;;18.00;10.65;;;;;;;;;;5039591;28;20381;-63
2022/12/19 02:35:10;;;;;;;15.85;11.00;;;;;;;;;;5052809;28;20500;-63
2022/12/19 02:37:54;;;;;;;18.42;11.50;;;;;;;;;;5052808;28;20037;-63
2022/12/19 02:40:25;;;;;;;16.15;11.20;;;;;;;;;;5053120;28;20353;-63
2022/12/19 02:42:56;;;;;;;18.20;11.07;;;;;;;;;;5053017;28;20477;-63
2022/12/19 02:45:26;;;;;;;19.02;11.93;;;;;;;;;;5052793;28;20021;-63
2022/12/19 02:47:51;;;;;;;17.63;11.05;;;;;;;;;;5052549;28;20523;-63
2022/12/19 02:50:17;;;;;;;17.70;11.32;;;;;;;;;;5052870;28;20040;-63
2022/12/19 02:52:45;;;;;;;17.38;11.10;;;;;;;;;;5052594;28;20033;-63
2022/12/19 02:55:14;;;;;;;17.73;11.68;;;;;;;;;;5052625;28;20411;-63
2022/12/19 02:57:49;;;;;;;16.63;11.25;;;;;;;;;;5052352;28;20492;-63
2022/12/19 03:00:20;;;;;;;17.63;11.27;;;;;;;;;;5052835;28;20033;-63
2022/12/19 03:02:53;;;;;;;16.58;10.95;;;;;;;;;;5052516;28;20443;-63
2022/12/19 03:05:21;;;;;;;17.23;11.13;;;;;;;;;;5052562;28;20103;-63
2022/12/19 03:08:14;;;;;;;18.23;11.45;;;;;;;;;;5067733;28;20044;-63
2022/12/19 03:10:45;;;;;;;18.02;11.32;;;;;;;;;;5052427;28;20107;-63
2022/12/19 03:13:16;;;;;;;;;;;;;;;;;;5053052;28;20029;-63
2022/12/19 03:15:42;;;;;;;16.42;11.43;;;;;;;;;;5052433;28;19947;-63
2022/12/19 03:18:09;;;;;;;19.45;11.50;;;;;;;;;;5052553;28;20056;-63
2022/12/19 03:20:48;;;;;;;18.95;12.10;;;;;;;;;;5052270;28;20036;-63
2022/12/19 03:23:15;;;;;;;20.42;11.85;;;;;;;;;;5052358;28;20025;-63
2022/12/19 03:25:44;;;;;;;20.52;11.95;;;;;;;;;;5052332;28;20057;-63
2022/12/19 03:28:33;;;;;;;18.47;11.33;;;;;;;;;;5052688;28;20114;-63
2022/12/19 03:31:01;;;;;;;17.48;11.23;;;;;;;;;;5052525;28;20028;-63
2022/12/19 03:33:30;;;;;;;19.23;11.82;;;;;;;;;;5052420;28;20032;-64
2022/12/19 03:36:00;;;;;;;17.85;11.55;;;;;;;;;;5052441;28;20029;-63
2022/12/19 03:38:27;;;;;;;18.37;10.90;;;;;;;;;;5052370;28;20021;-64
2022/12/19 03:40:53;;;;;;;17.92;11.40;;;;;;;;;;5052066;28;20265;-63
2022/12/19 03:43:21;;;;;;;18.58;11.52;;;;;;;;;;5052129;28;20017;-63
2022/12/19 03:45:57;;;;;;;17.30;11.48;;;;;;;;;;5050893;28;20086;-63
2022/12/19 03:48:31;;;;;;;19.83;12.32;;;;;;;;;;5052002;28;20064;-63
2022/12/19 03:51:15;;;;;;;16.15;10.73;;;;;;;;;;5051929;28;20033;-63
2022/12/19 03:54:10;;;;;;;18.13;11.43;;;;;;;;;;5052343;28;20417;-63
2022/12/19 03:56:46;;;;;;;16.60;11.23;;;;;;;;;;5038420;28;20132;-63
2022/12/19 03:59:21;;;;;;;17.75;11.43;;;;;;;;;;5052002;28;20488;-63
2022/12/19 04:01:48;;;;;;;16.95;11.25;;;;;;;;;;5051854;28;20055;-63
2022/12/19 04:04:14;;;;;;;17.08;10.48;;;;;;;;;;5052439;28;20066;-63
2022/12/19 04:06:42;;;;;;;17.17;11.48;;;;;;;;;;5052106;28;20029;-63
2022/12/19 04:09:09;;;;;;;18.27;11.95;;;;;;;;;;5052113;28;20031;-63
2022/12/19 04:11:39;;;;;;;18.75;12.02;;;;;;;;;;5051808;28;20032;-63
2022/12/19 04:14:07;;;;;;;;;;;;;;;;;;5052338;28;20028;-63
2022/12/19 04:16:43;;;;;;;16.30;11.20;;;;;;;;;;5052031;28;20337;-63
2022/12/19 04:19:32;;;;;;;15.93;10.70;;;;;;;;;;5052077;28;20488;-63
2022/12/19 04:22:16;;;;;;;17.40;10.65;;;;;;;;;;5051702;28;20040;-64
2022/12/19 04:24:45;;;;;;;16.85;11.25;;;;;;;;;;5051730;28;20512;-63
2022/12/19 04:27:12;;;;;;;17.83;11.70;;;;;;;;;;5051674;28;20060;-64
2022/12/19 04:29:38;;;;;;;18.15;11.55;;;;;;;;;;5051798;28;20037;-64
2022/12/19 04:32:06;;;;;;;17.40;11.15;;;;;;;;;;5051640;28;20099;-63
2022/12/19 04:34:32;;;;;;;16.40;10.88;;;;;;;;;;5054199;28;20087;-63
2022/12/19 04:36:58;;;;;;;15.63;11.32;;;;;;;;;;5055129;28;20029;-63
2022/12/19 04:39:23;;;;;;;17.98;11.55;;;;;;;;;;5054132;28;20120;-63
2022/12/19 04:41:49;;;;;;;16.50;11.35;;;;;;;;;;5055402;28;20056;-63
2022/12/19 04:44:14;;;;;;;16.00;10.88;;;;;;;;;;5055014;28;20370;-64
2022/12/19 04:46:40;;;;;;;16.90;11.35;;;;;;;;;;5055308;28;20021;-64
2022/12/19 04:49:05;;;;;;;18.00;11.88;;;;;;;;;;5055100;28;20029;-63
2022/12/19 04:51:31;;;;;;;17.13;11.60;;;;;;;;;;5054952;28;20464;-63
2022/12/19 04:53:57;;;;;;;19.20;11.35;;;;;;;;;;5054830;28;20060;-63
2022/12/19 04:56:22;;;;;;;19.95;11.75;;;;;;;;;;5054855;28;20117;-63
2022/12/19 04:58:47;;;;;;;21.20;11.70;;;;;;;;;;5054751;28;20518;-63
2022/12/19 05:01:13;;;;;;;17.52;11.77;;;;;;;;;;5053610;28;20025;-63
2022/12/19 05:03:39;;;;;;;15.63;11.13;;;;;;;;;;5054616;28;20112;-63
2022/12/19 05:06:12;;;;;;;19.65;12.23;;;;;;;;;;5054630;28;20033;-63
2022/12/19 05:08:40;;;;;;;19.20;12.18;;;;;;;;;;5054461;28;20385;-63
2022/12/19 05:11:07;;;;;;;18.13;11.38;;;;;;;;;;5054822;28;20033;-63
2022/12/19 05:13:32;;;;;;;16.38;11.10;;;;;;;;;;5054521;28;20119;-64
2022/12/19 05:16:00;;;;;;;17.40;11.35;;;;;;;;;;5054380;28;20029;-63
2022/12/19 05:18:26;;;;;;;18.27;11.02;;;;;;;;;;5054297;28;20025;-63
2022/12/19 05:20:51;;;;;;;18.20;11.32;;;;;;;;;;5054629;28;20082;-63
2022/12/19 05:23:18;;;;;;;17.55;11.27;;;;;;;;;;5054491;28;20033;-63
2022/12/19 05:25:43;;;;;;;17.13;11.68;;;;;;;;;;5054530;28;20461;-63
2022/12/19 05:28:09;;;;;;;18.88;11.80;;;;;;;;;;5054120;28;20025;-63
2022/12/19 05:30:34;;;;;;;18.52;11.73;;;;;;;;;;5054409;28;20049;-63
2022/12/19 05:33:00;;;;;;;17.52;10.95;;;;;;;;;;5054035;28;20451;-63
2022/12/19 05:35:26;;;;;;;16.88;11.32;;;;;;;;;;5054293;28;20021;-63
2022/12/19 05:37:51;;;;;;;18.27;12.07;;;;;;;;;;5054311;28;20036;-64
2022/12/19 05:40:19;;;;;;;16.85;11.38;;;;;;;;;;5054003;28;20102;-64
2022/12/19 05:42:45;;;;;;;18.02;11.50;;;;;;;;;;5053885;28;20025;-64
2022/12/19 05:45:10;;;;;;;17.52;11.43;;;;;;;;;;5053793;28;20033;-64
2022/12/19 05:47:36;;;;;;;16.00;11.75;;;;;;;;;;5053961;28;20021;-64
2022/12/19 05:50:02;;;;;;;17.20;11.07;;;;;;;;;;5053770;28;20438;-64
2022/12/19 05:52:27;;;;;;;19.00;11.98;;;;;;;;;;5053597;28;20025;-64
2022/12/19 05:54:53;;;;;;;18.77;11.40;;;;;;;;;;5053646;28;20027;-64
2022/12/19 05:57:18;;;;;;;16.15;10.93;;;;;;;;;;5053450;28;20077;-64
2022/12/19 05:59:44;;;;;;;18.27;11.32;;;;;;;;;;5053540;28;20029;-64
2022/12/19 06:02:09;;;;;;;17.92;11.65;;;;;;;;;;5053453;28;20186;-64
2022/12/19 06:04:36;;;;;;;15.68;11.02;;;;;;;;;;5053750;28;20025;-64
2022/12/19 06:07:02;;;;;;;20.40;11.85;;;;;;;;;;5053375;28;20032;-65
2022/12/19 06:09:28;;;;;;;17.00;11.25;;;;;;;;;;5053284;28;20065;-64
2022/12/19 06:11:53;;;;;;;16.35;10.65;;;;;;;;;;5053166;28;20049;-64
2022/12/19 06:14:19;;;;;;;16.10;11.10;;;;;;;;;;5053236;28;20028;-64
2022/12/19 06:16:45;;;;;;;18.50;11.48;;;;;;;;;;5053088;28;20044;-64
2022/12/19 06:19:10;;;;;;;16.48;11.15;;;;;;;;;;5053403;28;20082;-64
2022/12/19 06:21:36;;;;;;;17.90;11.68;;;;;;;;;;5053003;28;20017;-64
2022/12/19 06:24:01;;;;;;;17.30;11.70;;;;;;;;;;5053309;28;20119;-64
2022/12/19 06:26:27;;;;;;;16.33;11.32;;;;;;;;;;5052982;28;20020;-65
2022/12/19 06:28:54;;;;;;;19.65;11.65;;;;;;;;;;5052878;28;20082;-64
2022/12/19 06:31:21;;;;;;;17.27;11.27;;;;;;;;;;5052825;28;20119;-65
2022/12/19 06:33:47;;;;;;;18.58;11.75;;;;;;;;;;5052905;28;20032;-64
2022/12/19 06:36:28;;;;;;;15.30;10.60;;;;;;;;;;5052794;28;20021;-64
2022/12/19 06:38:56;;;;;;;17.50;11.30;;;;;;;;;;5052875;28;20040;-64
2022/12/19 06:44:08;;;;;;;15.70;10.90;;;;;;;;;;5052776;28;20048;-64
2022/12/19 06:46:34;;;;;;;18.60;11.88;;;;;;;;;;5052710;28;20384;-64
2022/12/19 06:48:59;;;;;;;17.25;11.07;;;;;;;;;;5052647;28;20028;-64
2022/12/19 06:51:25;;;;;;;16.35;11.18;;;;;;;;;;5052595;28;20017;-65
2022/12/19 06:53:51;;;;;;;17.48;11.50;;;;;;;;;;5052561;28;20070;-64
2022/12/19 06:56:17;;;;;;;17.15;11.45;;;;;;;;;;5051763;28;20045;-64
2022/12/19 06:58:43;;;;;;;17.65;10.88;;;;;;;;;;5052788;28;20028;-64
2022/12/19 07:01:32;;;;;;;16.60;11.02;;;;;;;;;;5052716;28;20380;-64
2022/12/19 07:03:58;;;;;;;18.08;12.02;;;;;;;;;;5052533;28;20037;-64
2022/12/19 07:06:24;;;;;;;17.15;11.38;;;;;;;;;;5052362;28;20616;-64
2022/12/19 07:08:49;;;;;;;18.27;12.15;;;;;;;;;;5052572;28;20021;-64
2022/12/19 07:11:14;;;;;;;17.60;11.40;;;;;;;;;;5052217;28;20025;-64
2022/12/19 07:13:40;;;;;;;19.65;12.52;;;;;;;;;;5052604;28;20029;-64
2022/12/19 07:16:07;;;;;;;20.77;11.93;;;;;;;;;;5052190;28;20051;-64
2022/12/19 07:18:36;;;;;;;17.63;11.90;;;;;;;;;;5052294;28;20029;-64
2022/12/19 07:21:03;;;;;;;18.88;12.27;;;;;;;;;;5052228;28;20025;-64
2022/12/19 07:23:29;;;;;;;17.52;11.80;;;;;;;;;;5051210;28;20029;-64
2022/12/19 07:25:55;;;;;;;17.67;11.63;;;;;;;;;;5043342;28;20075;-64
2022/12/19 07:28:21;;;;;;;17.73;11.30;;;;;;;;;;5039197;28;20026;-64
2022/12/19 07:30:46;;;;;;;19.98;12.52;;;;;;;;;;5039954;28;20029;-65
2022/12/19 07:33:12;;;;;;;19.20;11.43;;;;;;;;;;5037579;28;20056;-64
2022/12/19 07:35:38;;;;;;;19.67;12.27;;;;;;;;;;5044149;28;20036;-64
2022/12/19 07:38:05;;;;;;;18.02;11.48;;;;;;;;;;5051084;28;20021;-64
2022/12/19 07:40:31;;;;;;;20.98;12.27;;;;;;;;;;5050575;28;20060;-64
2022/12/19 07:43:04;;;;;;;19.88;12.23;;;;;;;;;;5042350;28;20033;-64
2022/12/19 07:45:31;;;;;;;18.05;11.80;;;;;;;;;;5045267;28;20484;-65
2022/12/19 07:48:04;;;;;;;20.17;12.15;;;;;;;;;;5035120;28;20033;-65
2022/12/19 07:50:30;;;;;;;19.52;11.63;;;;;;;;;;5041637;28;20013;-65
2022/12/19 07:52:57;;;;;;;19.70;11.50;;;;;;;;;;5033644;28;20075;-63
2022/12/19 07:55:23;;;;;;;18.35;11.50;;;;;;;;;;5051054;28;20072;-64
2022/12/19 07:57:49;;;;;;;18.17;11.57;;;;;;;;;;5051253;28;20060;-63
2022/12/19 08:00:15;;;;;;;18.92;12.35;;;;;;;;;;5051661;28;20377;-63
2022/12/19 08:02:40;;;;;;;17.20;11.20;;;;;;;;;;5051893;28;20017;-63
2022/12/19 08:05:06;;;;;;;18.70;11.52;;;;;;;;;;5051793;28;20033;-63
2022/12/19 08:07:31;;;;;;;19.73;11.98;;;;;;;;;;5052214;28;20021;-64
2022/12/19 08:09:57;;;;;;;19.60;12.63;;;;;;;;;;5043271;28;20481;-65
2022/12/19 08:12:23;;;;;;;18.70;11.30;;;;;;;;;;5035460;28;20025;-64
2022/12/19 08:14:49;;;;;;;18.88;12.18;;;;;;;;;;5035394;28;20034;-64
2022/12/19 08:17:15;;;;;;;17.63;11.35;;;;;;;;;;5038172;28;20020;-64
2022/12/19 08:19:40;;;;;;;21.80;12.60;;;;;;;;;;5044883;28;20420;-64
2022/12/19 08:22:06;;;;;;;17.10;11.85;;;;;;;;;;5043395;28;20037;-65
2022/12/19 08:24:32;;;;;;;20.75;11.90;;;;;;;;;;5049163;28;20020;-63
2022/12/19 08:26:57;;;;;;;18.73;11.52;;;;;;;;;;5047167;28;20473;-64
2022/12/19 08:29:23;;;;;;;19.55;12.23;;;;;;;;;;5044333;28;20029;-65
2022/12/19 08:31:49;;;;;;;20.05;12.13;;;;;;;;;;5047591;28;20044;-64
2022/12/19 08:34:14;;;;;;;20.17;12.40;;;;;;;;;;5043535;28;20108;-66
2022/12/19 08:36:40;;;;;;;19.52;12.02;;;;;;;;;;5035014;28;20025;-65
2022/12/19 08:39:07;;;;;;;18.40;11.93;;;;;;;;;;5034968;28;20034;-65
2022/12/19 08:41:32;;;;;;;20.17;12.05;;;;;;;;;;5038027;28;20025;-64
2022/12/19 08:43:58;;;;;;;19.13;11.45;;;;;;;;;;5055250;28;20044;-65
2022/12/19 08:46:24;;;;;;;19.60;11.73;;;;;;;;;;5053638;28;20357;-65
2022/12/19 08:48:49;;;;;;;19.52;11.52;;;;;;;;;;5054789;28;20040;-64
2022/12/19 08:51:16;;;;;;;19.45;12.38;;;;;;;;;;5054048;28;20040;-65
2022/12/19 08:53:43;;;;;;;20.20;12.15;;;;;;;;;;5054579;28;20078;-65
2022/12/19 08:56:15;;;;;;;18.20;12.02;;;;;;;;;;5051622;28;20045;-65
2022/12/19 08:58:41;;;;;;;19.20;12.05;;;;;;;;;;5052555;28;20496;-65
2022/12/19 09:01:09;;;;;;;17.23;10.75;;;;;;;;;;5045639;28;20120;-66
2022/12/19 09:03:36;;;;;;;19.48;12.07;;;;;;;;;;5047660;28;20025;-66
2022/12/19 09:06:04;;;;;;;18.50;11.65;;;;;;;;;;5053046;28;20373;-66
2022/12/19 09:08:31;;;;;;;18.63;12.43;;;;;;;;;;5054377;28;20071;-66
2022/12/19 09:11:03;;;;;;;20.45;12.00;;;;;;;;;;5054489;28;20024;-64
2022/12/19 09:13:30;;;;;;;19.85;12.00;;;;;;;;;;5054485;28;20096;-66
2022/12/19 09:16:28;;;;;;;19.30;11.48;;;;;;;;;;5054354;28;20033;-63
2022/12/19 09:18:55;;;;;;;19.50;12.18;;;;;;;;;;5020086;28;20037;-66
2022/12/19 09:21:22;;;;;;;21.63;12.60;;;;;;;;;;5054020;28;20085;-64
2022/12/19 09:23:50;;;;;;;20.23;12.00;;;;;;;;;;5049685;28;20098;-66
2022/12/19 09:26:16;;;;;;;17.75;11.32;;;;;;;;;;5052801;28;20104;-64
2022/12/19 09:28:42;;;;;;;20.50;12.07;;;;;;;;;;5052862;28;20112;-67
2022/12/19 09:31:12;;;;;;;18.73;11.82;;;;;;;;;;5053522;28;20032;-63
2022/12/19 09:33:38;;;;;;;16.92;11.57;;;;;;;;;;5052714;28;20047;-63
2022/12/19 09:36:05;;;;;;;21.23;12.60;;;;;;;;;;5053024;28;20025;-66
2022/12/19 09:38:33;;;;;;;21.10;11.88;;;;;;;;;;5053599;28;20023;-63
2022/12/19 09:41:32;;;;;;;17.20;11.10;;;;;;;;;;5053751;28;20040;-63
2022/12/19 09:44:26;;;;;;;19.42;12.00;;;;;;;;;;5054138;28;20411;-65
2022/12/19 09:46:59;;;;;;;21.30;12.30;;;;;;;;;;5053859;28;20025;-64
2022/12/19 09:49:32;;;;;;;19.65;11.85;;;;;;;;;;5053262;28;20040;-64
2022/12/19 09:52:17;;;;;;;19.40;11.77;;;;;;;;;;5053735;28;20037;-64
2022/12/19 09:54:56;;;;;;;19.42;11.90;;;;;;;;;;5053677;28;20025;-66
2022/12/19 09:57:37;;;;;;;20.63;12.15;;;;;;;;;;5053381;28;20509;-67
2022/12/19 10:00:20;;;;;;;18.73;12.20;;;;;;;;;;5053835;28;20036;-65
2022/12/19 10:02:52;;;;;;;18.33;12.10;;;;;;;;;;5053780;28;20024;-66
2022/12/19 10:05:18;;;;;;;19.08;11.93;;;;;;;;;;5053427;28;20040;-67
2022/12/19 10:07:44;;;;;;;20.13;11.98;;;;;;;;;;5053291;28;20021;-66
2022/12/19 10:10:15;;;;;;;20.30;11.95;;;;;;;;;;5053640;28;20025;-66
2022/12/19 10:12:46;;;;;;;;;;;;;;;;;;5052347;28;20091;-63
2022/12/19 10:15:52;;;;;;;16.55;10.80;;;;;;;;;;5053089;28;20530;-65
2022/12/19 10:18:30;;;;;;;18.13;11.35;;;;;;;;;;5052455;28;20055;-65
2022/12/19 10:21:12;;;;;;;20.00;11.52;;;;;;;;;;5053045;28;20035;-65
2022/12/19 10:23:50;;;;;;;18.50;11.65;;;;;;;;;;5052923;28;20448;-62
2022/12/19 10:26:19;;;;;;;19.33;11.82;;;;;;;;;;5052909;28;20091;-66
2022/12/19 10:28:51;;;;;;;21.88;12.40;;;;;;;;;;5052775;28;20033;-65
2022/12/19 10:31:28;;;;;;;18.92;11.73;;;;;;;;;;5052269;28;20601;-65
2022/12/19 10:34:18;;;;;;;19.42;11.80;;;;;;;;;;5052925;28;20641;-64
2022/12/19 10:36:50;;;;;;;17.02;11.15;;;;;;;;;;5052994;28;20033;-65
2022/12/19 10:39:30;;;;;;;17.05;11.07;;;;;;;;;;5052817;28;20025;-65
2022/12/19 10:41:58;;;;;;;;;;;;;;;;;;5053498;28;20044;-63
2022/12/19 10:44:27;;;;;;;17.08;11.52;;;;;;;;;;5052685;28;19913;-66
2022/12/19 10:46:52;;;;;;;19.73;11.80;;;;;;;;;;5052976;28;20111;-66
2022/12/19 10:49:24;;;;;;;18.27;11.73;;;;;;;;;;5052602;28;20119;-67
2022/12/19 10:52:04;;;;;;;20.02;11.75;;;;;;;;;;5050834;28;20031;-66
2022/12/19 10:54:42;;;;;;;18.58;11.63;;;;;;;;;;5052857;28;20025;-66
2022/12/19 10:57:22;;;;;;;18.55;12.02;;;;;;;;;;5050962;28;20076;-65
2022/12/19 10:59:56;;;;;;;18.00;11.15;;;;;;;;;;5051101;28;20032;-63
2022/12/19 11:02:39;;;;;;;18.08;11.32;;;;;;;;;;5052683;28;20025;-67
2022/12/19 11:05:25;;;;;;;16.20;11.45;;;;;;;;;;5040820;28;20018;-67
2022/12/19 11:08:06;;;;;;;19.85;11.82;;;;;;;;;;5038999;28;20035;-64
2022/12/19 11:10:37;;;;;;;19.77;11.98;;;;;;;;;;5052023;28;20036;-68
2022/12/19 11:13:19;;;;;;;17.80;11.40;;;;;;;;;;5052455;28;20365;-68
2022/12/19 11:15:53;;;;;;;17.85;11.32;;;;;;;;;;5050946;28;20488;-64
2022/12/19 11:18:18;;;;;;;17.10;10.82;;;;;;;;;;5046459;28;20025;-64
2022/12/19 11:21:00;;;;;;;18.52;11.35;;;;;;;;;;5052371;28;20036;-68
2022/12/19 11:23:28;;;;;;;17.63;11.63;;;;;;;;;;5049799;28;20037;-68
2022/12/19 11:26:05;;;;;;;17.42;10.77;;;;;;;;;;5052143;28;20068;-65
2022/12/19 11:28:37;;;;;;;18.20;11.25;;;;;;;;;;5050320;28;20102;-65
2022/12/19 11:31:10;;;;;;;18.40;11.43;;;;;;;;;;5052112;28;20032;-66
2022/12/19 11:33:36;;;;;;;15.98;10.43;;;;;;;;;;5052342;28;20044;-68
2022/12/19 11:36:03;;;;;;;19.75;11.60;;;;;;;;;;5052171;28;20478;-68
2022/12/19 11:38:37;;;;;;;18.05;11.63;;;;;;;;;;5042496;28;20053;-68
2022/12/19 11:41:31;;;;;;;19.40;11.82;;;;;;;;;;5032275;28;20037;-67
2022/12/19 11:44:12;;;;;;;16.50;10.98;;;;;;;;;;5035496;28;20056;-67
2022/12/19 11:46:51;;;;;;;17.33;10.48;;;;;;;;;;5036294;28;20053;-67
2022/12/19 11:49:29;;;;;;;18.02;11.15;;;;;;;;;;5036118;28;20060;-66
2022/12/19 11:52:15;;;;;;;19.38;10.93;;;;;;;;;;5036270;28;20362;-64
2022/12/19 11:54:59;;;;;;;19.10;12.15;;;;;;;;;;5044811;28;20055;-66
2022/12/19 11:57:26;;;;;;;17.23;11.30;;;;;;;;;;5073820;28;20048;-66
2022/12/19 11:59:52;;;;;;;17.08;11.15;;;;;;;;;;5075674;28;20184;-66
2022/12/19 12:02:45;;;;;;;17.70;11.40;;;;;;;;;;5075687;28;20024;-67
2022/12/19 12:05:23;;;;;;;16.10;11.15;;;;;;;;;;5074593;28;20024;-65
2022/12/19 12:08:02;;;;;;;18.67;10.95;;;;;;;;;;5075172;28;20017;-66
2022/12/19 12:10:32;;;;;;;16.08;10.80;;;;;;;;;;5074383;28;20067;-66
2022/12/19 12:13:16;;;;;;;;;;;;;;;;;;5075795;28;20021;-65
2022/12/19 12:15:59;;;;;;;16.95;10.90;;;;;;;;;;5075814;28;19919;-67
2022/12/19 12:18:49;;;;;;;16.83;11.13;;;;;;;;;;5075700;28;20422;-67
2022/12/19 12:21:38;;;;;;;17.35;10.82;;;;;;;;;;5075734;28;20031;-65
2022/12/19 12:24:10;;;;;;;18.35;11.18;;;;;;;;;;5075393;28;20498;-66
2022/12/19 12:26:52;;;;;;;18.35;10.82;;;;;;;;;;5075418;28;20036;-66
2022/12/19 12:29:24;;;;;;;17.95;11.15;;;;;;;;;;5075186;28;20036;-65
2022/12/19 12:32:41;;;;;;;16.40;10.73;;;;;;;;;;5075510;28;20107;-66
2022/12/19 12:35:27;;;;;;;17.52;11.13;;;;;;;;;;5072283;28;20119;-65
2022/12/19 12:38:15;;;;;;;16.40;10.95;;;;;;;;;;5074301;28;20029;-67
2022/12/19 12:40:49;;;;;;;15.80;10.57;;;;;;;;;;5075075;28;20024;-67
2022/12/19 12:43:15;;;;;;;18.45;10.75;;;;;;;;;;5074884;28;20385;-66
2022/12/19 12:45:45;;;;;;;15.80;10.52;;;;;;;;;;5073583;28;20115;-64
2022/12/19 12:48:16;;;;;;;;;;;;;;;;;;5075569;28;20032;-65
2022/12/19 12:50:43;;;;;;;15.93;10.35;;;;;;;;;;5075253;28;19935;-65
2022/12/19 12:53:11;;;;;;;18.95;11.10;;;;;;;;;;5075302;28;20024;-65
2022/12/19 12:55:41;;;;;;;19.77;11.40;;;;;;;;;;5073866;28;20538;-65
2022/12/19 12:58:42;;;;;;;16.60;10.63;;;;;;;;;;5074597;28;20051;-66
2022/12/19 13:01:18;;;;;;;16.08;10.27;;;;;;;;;;5074826;28;20043;-64
2022/12/19 13:03:53;;;;;;;15.82;10.40;;;;;;;;;;5074995;28;20024;-65
2022/12/19 13:06:36;;;;;;;17.95;10.82;;;;;;;;;;5074458;28;20031;-65
2022/12/19 13:09:20;;;;;;;19.08;11.48;;;;;;;;;;5074705;28;20035;-66
2022/12/19 13:15:04;;;;;;;16.35;10.45;;;;;;;;;;5074790;28;20035;-66
2022/12/19 13:17:33;;;;;;;16.20;10.55;;;;;;;;;;5074069;28;20036;-66
2022/12/19 13:20:04;;;;;;;17.25;10.85;;;;;;;;;;5074687;28;20055;-65
2022/12/19 13:22:30;;;;;;;16.33;10.60;;;;;;;;;;5074249;28;20036;-66
2022/12/19 13:24:58;;;;;;;19.42;10.95;;;;;;;;;;5074548;28;20029;-65
2022/12/19 13:27:32;;;;;;;16.83;10.32;;;;;;;;;;5074524;28;20047;-66
2022/12/19 13:30:02;;;;;;;16.58;10.80;;;;;;;;;;5074233;28;20127;-65
2022/12/19 13:32:52;;;;;;;16.38;11.02;;;;;;;;;;5074462;28;20133;-64
2022/12/19 13:35:17;;;;;;;18.27;11.03;;;;;;;;;;5074021;28;20043;-66
2022/12/19 13:37:43;;;;;;;18.70;11.05;;;;;;;;;;5074243;28;20262;-65
2022/12/19 13:40:29;;;;;;;16.83;10.73;;;;;;;;;;5073904;28;20027;-63
2022/12/19 13:45:55;;;;;;;17.30;10.75;;;;;;;;;;5073923;28;20043;-65
2022/12/19 13:48:44;;;;;;;15.88;10.30;;;;;;;;;;5073985;28;20035;-64
2022/12/19 13:51:12;;;;;;;16.73;10.27;;;;;;;;;;5067636;28;20312;-65
2022/12/19 13:53:38;;;;;;;17.00;10.98;;;;;;;;;;5074014;28;20077;-65
2022/12/19 13:56:16;;;;;;;18.98;10.93;;;;;;;;;;5073853;28;20107;-64
2022/12/19 13:58:49;;;;;;;16.88;10.82;;;;;;;;;;5073863;28;20104;-63
2022/12/19 14:01:22;;;;;;;19.75;10.20;;;;;;;;;;5073874;28;20024;-65
2022/12/19 14:03:50;;;;;;;16.33;10.75;;;;;;;;;;5073773;28;20085;-66
2022/12/19 14:06:28;;;;;;;19.67;11.43;;;;;;;;;;5073576;28;20023;-65
2022/12/19 14:09:06;;;;;;;17.98;11.52;;;;;;;;;;5073681;28;20040;-64
2022/12/19 14:11:40;;;;;;;16.23;10.85;;;;;;;;;;5073346;28;20049;-64
2022/12/19 14:17:16;;;;;;;15.40;10.35;;;;;;;;;;5073664;28;20124;-64
2022/12/19 14:19:47;;;;;;;16.17;10.48;;;;;;;;;;5073373;28;20067;-67
2022/12/19 14:22:21;;;;;;;17.48;10.93;;;;;;;;;;5071981;28;20048;-65
2022/12/19 14:25:01;;;;;;;19.02;11.38;;;;;;;;;;5073399;28;20110;-65
2022/12/19 14:27:42;;;;;;;15.88;10.73;;;;;;;;;;5073316;28;20016;-66
2022/12/19 14:30:29;;;;;;;17.13;10.80;;;;;;;;;;5072894;28;20130;-65
2022/12/19 14:32:57;;;;;;;16.90;11.23;;;;;;;;;;5071711;28;20025;-64
2022/12/19 14:35:26;;;;;;;18.27;11.05;;;;;;;;;;5073227;28;20033;-64
2022/12/19 14:38:04;;;;;;;18.42;11.00;;;;;;;;;;5072746;28;20039;-66
2022/12/19 14:40:31;;;;;;;18.25;11.27;;;;;;;;;;5072821;28;20476;-65
2022/12/19 14:45:47;;;;;;;16.63;10.98;;;;;;;;;;5073097;28;20079;-65
2022/12/19 14:48:33;;;;;;;18.02;10.55;;;;;;;;;;5072541;28;20487;-66
2022/12/19 14:51:34;;;;;;;18.60;11.27;;;;;;;;;;5072987;28;20103;-64
2022/12/19 14:54:08;;;;;;;14.98;10.32;;;;;;;;;;5072576;28;20145;-65
2022/12/19 14:56:53;;;;;;;17.08;11.07;;;;;;;;;;5072481;28;20047;-66
2022/12/19 14:59:34;;;;;;;14.88;10.45;;;;;;;;;;5072901;28;20033;-66
2022/12/19 15:02:03;;;;;;;17.30;10.82;;;;;;;;;;5072520;28;20464;-66
2022/12/19 15:04:41;;;;;;;16.73;11.43;;;;;;;;;;5072448;28;20036;-65